Time;durP1;ratioP1;P1;durP2;ratioP2;P2;SDS_P1;SDS_P2;PMS_P1;PMS_P2;Temp;Humidity;BMP_temperature;BMP_pressure;BME280_temperature;BME280_humidity;BME280_pressure;Samples;Min_cycle;Max_cycle;Signal;HPM_P1;HPM_P2
2023/08/27 00:01:26;;;;;;;;;;;16.90;99.90;;;;;;7628522;19;19918;-73
2023/08/27 00:03:59;;;;;;;;;;;16.90;99.90;;;;;;7627193;19;19974;-73
2023/08/27 00:06:31;;;;;;;;;;;17.00;99.90;;;;;;7629191;19;19950;-75
2023/08/27 00:09:04;;;;;;;;;;;17.00;99.90;;;;;;7628209;19;19929;-75
2023/08/27 00:11:36;;;;;;;;;;;16.90;99.90;;;;;;7629822;19;19930;-73
2023/08/27 00:14:08;;;;;;;;;;;17.00;99.90;;;;;;7627300;19;19933;-74
2023/08/27 00:16:40;;;;;;;;;;;16.90;99.90;;;;;;7630534;19;19919;-71
2023/08/27 00:19:14;;;;;;;;;;;16.90;99.90;;;;;;7627051;19;19930;-74
2023/08/27 00:21:48;;;;;;;;;;;16.90;99.90;;;;;;7633040;19;20484;-73
2023/08/27 00:24:20;;;;;;;;;;;16.90;99.90;;;;;;7640062;19;19950;-75
2023/08/27 00:26:52;;;;;;;;;;;16.90;99.90;;;;;;7626402;19;19985;-71
2023/08/27 00:29:24;;;;;;;;;;;16.90;99.90;;;;;;7624713;19;19923;-75
2023/08/27 00:31:56;;;;;;;;;;;16.90;99.90;;;;;;7617979;19;20479;-75
2023/08/27 00:34:33;;;;;;;;;;;16.90;99.90;;;;;;7618854;19;19938;-75
2023/08/27 00:37:06;;;;;;;;;;;16.80;99.90;;;;;;7615000;19;19923;-74
2023/08/27 00:39:38;;;;;;;;;;;16.80;99.90;;;;;;7615591;19;20480;-74
2023/08/27 00:42:11;;;;;;;;;;;16.90;99.90;;;;;;7609005;19;19919;-74
2023/08/27 00:44:43;;;;;;;;;;;16.90;99.90;;;;;;7617281;19;19923;-73
2023/08/27 00:47:16;;;;;;;;;;;16.90;99.90;;;;;;7611749;19;19929;-74
2023/08/27 00:49:49;;;;;;;;;;;16.80;99.90;;;;;;7615141;19;19926;-73
2023/08/27 00:52:21;;;;;;;;;;;16.80;99.90;;;;;;7612574;19;19955;-73
2023/08/27 00:54:54;;;;;;;;;;;16.90;99.90;;;;;;7612728;19;19923;-74
2023/08/27 00:57:26;;;;;;;;;;;16.90;99.90;;;;;;7613303;19;20291;-74
2023/08/27 00:59:58;;;;;;;;;;;16.80;99.90;;;;;;7611221;19;19961;-75
2023/08/27 01:02:30;;;;;;;;;;;16.90;99.90;;;;;;7615128;19;20604;-74
2023/08/27 01:05:03;;;;;;;;;;;16.80;99.90;;;;;;7612778;19;20915;-74
2023/08/27 01:07:47;;;;;;;;;;;16.90;99.90;;;;;;7614414;19;21626;-75
2023/08/27 01:10:20;;;;;;;;;;;16.90;99.90;;;;;;7611987;19;19914;-74
2023/08/27 01:13:03;;;;;;;;;;;16.70;99.90;;;;;;7610520;19;19956;-75
2023/08/27 01:15:36;;;;;;;;;;;16.80;99.90;;;;;;7611675;19;20587;-74
2023/08/27 01:18:09;;;;;;;;;;;16.80;99.90;;;;;;7607452;19;19922;-75
2023/08/27 01:20:41;;;;;;;;;;;16.80;99.90;;;;;;7610770;19;19945;-74
2023/08/27 01:23:13;;;;;;;;;;;16.80;99.90;;;;;;7608596;19;19923;-75
2023/08/27 01:25:50;;;;;;;;;;;16.80;99.90;;;;;;7611621;19;20398;-73
2023/08/27 01:28:28;;;;;;;;;;;16.90;99.90;;;;;;7610030;19;20463;-75
2023/08/27 01:31:08;;;;;;;;;;;16.90;99.90;;;;;;7607804;19;19927;-74
2023/08/27 01:33:40;;;;;;;;;;;16.90;99.90;;;;;;7611154;19;19929;-73
2023/08/27 01:36:13;;;;;;;;;;;16.90;99.90;;;;;;7611630;19;19931;-75
2023/08/27 01:38:46;;;;;;;;;;;17.00;99.90;;;;;;7617402;19;19926;-75
2023/08/27 01:41:18;;;;;;;;;;;16.90;99.90;;;;;;7616538;19;19970;-74
2023/08/27 01:43:50;;;;;;;;;;;16.90;99.90;;;;;;7620037;19;19923;-75
2023/08/27 01:46:23;;;;;;;;;;;16.90;99.90;;;;;;7615796;19;19990;-74
2023/08/27 01:48:55;;;;;;;;;;;16.90;99.90;;;;;;7619433;19;19966;-75
2023/08/27 01:51:27;;;;;;;;;;;17.00;99.90;;;;;;7617230;19;19926;-74
2023/08/27 01:53:59;;;;;;;;;;;17.00;99.90;;;;;;7614468;19;19955;-75
2023/08/27 01:56:31;;;;;;;;;;;16.90;99.90;;;;;;7613793;19;19919;-76
2023/08/27 01:59:04;;;;;;;;;;;16.90;99.90;;;;;;7612384;19;19915;-74
2023/08/27 02:01:36;;;;;;;;;;;16.90;99.90;;;;;;7612903;19;19923;-76
2023/08/27 02:04:09;;;;;;;;;;;16.90;99.90;;;;;;7614936;19;20432;-75
2023/08/27 02:06:41;;;;;;;;;;;16.90;99.90;;;;;;7613912;19;20254;-74
2023/08/27 02:09:13;;;;;;;;;;;16.90;99.90;;;;;;7612884;19;19923;-74
2023/08/27 02:11:45;;;;;;;;;;;16.90;99.90;;;;;;7612918;19;19974;-75
2023/08/27 02:14:17;;;;;;;;;;;16.90;99.90;;;;;;7611593;19;20586;-74
2023/08/27 02:16:50;;;;;;;;;;;16.90;99.90;;;;;;7615963;19;20001;-76
2023/08/27 02:19:22;;;;;;;;;;;16.80;99.90;;;;;;7611652;19;19919;-74
2023/08/27 02:21:54;;;;;;;;;;;16.90;99.90;;;;;;7616165;19;19919;-76
2023/08/27 02:24:26;;;;;;;;;;;16.90;99.90;;;;;;7612060;19;19930;-76
2023/08/27 02:26:58;;;;;;;;;;;16.90;99.90;;;;;;7610091;19;20621;-75
2023/08/27 02:29:31;;;;;;;;;;;16.90;99.90;;;;;;7615511;19;20004;-75
2023/08/27 02:32:05;;;;;;;;;;;16.90;99.90;;;;;;7611315;19;20516;-74
2023/08/27 02:34:39;;;;;;;;;;;16.90;99.90;;;;;;7615017;19;19949;-74
2023/08/27 02:37:12;;;;;;;;;;;16.80;99.90;;;;;;7609508;19;19918;-74
2023/08/27 02:39:44;;;;;;;;;;;16.70;99.90;;;;;;7618152;19;19914;-74
2023/08/27 02:42:16;;;;;;;;;;;16.70;99.90;;;;;;7611844;19;19960;-75
2023/08/27 02:44:48;;;;;;;;;;;16.70;99.90;;;;;;7613446;19;20501;-76
2023/08/27 02:47:21;;;;;;;;;;;16.80;99.90;;;;;;7611048;19;19954;-76
2023/08/27 02:49:53;;;;;;;;;;;16.80;99.90;;;;;;7616131;19;19922;-75
2023/08/27 02:52:25;;;;;;;;;;;16.90;99.90;;;;;;7607796;19;20682;-75
2023/08/27 02:54:58;;;;;;;;;;;16.80;99.90;;;;;;7612389;19;19964;-73
2023/08/27 02:57:30;;;;;;;;;;;16.80;99.90;;;;;;7607215;19;20001;-72
2023/08/27 03:00:03;;;;;;;;;;;16.80;99.90;;;;;;7610975;19;19923;-73
2023/08/27 03:02:35;;;;;;;;;;;16.80;99.90;;;;;;7609900;19;19936;-72
2023/08/27 03:05:08;;;;;;;;;;;16.90;99.90;;;;;;7608400;19;19927;-75
2023/08/27 03:07:40;;;;;;;;;;;16.80;99.90;;;;;;7602974;19;20333;-74
2023/08/27 03:10:13;;;;;;;;;;;16.80;99.90;;;;;;7607828;19;19919;-74
2023/08/27 03:12:45;;;;;;;;;;;16.80;99.90;;;;;;7605252;19;19918;-75
2023/08/27 03:15:17;;;;;;;;;;;16.80;99.90;;;;;;7610994;19;19922;-76
2023/08/27 03:17:49;;;;;;;;;;;16.90;99.90;;;;;;7608015;19;20045;-72
2023/08/27 03:20:22;;;;;;;;;;;16.90;99.90;;;;;;7612108;19;19925;-72
2023/08/27 03:22:54;;;;;;;;;;;16.90;99.90;;;;;;7598444;19;19923;-74
2023/08/27 03:25:26;;;;;;;;;;;16.90;99.90;;;;;;7608372;19;19998;-72
2023/08/27 03:27:58;;;;;;;;;;;16.80;99.90;;;;;;7599201;19;19929;-73
2023/08/27 03:30:31;;;;;;;;;;;16.80;99.90;;;;;;7609122;19;19922;-72
2023/08/27 03:33:03;;;;;;;;;;;16.80;99.90;;;;;;7612216;19;19945;-74
2023/08/27 03:35:36;;;;;;;;;;;16.80;99.90;;;;;;7608854;19;19942;-74
2023/08/27 03:38:09;;;;;;;;;;;16.90;99.90;;;;;;7609436;19;19923;-73
2023/08/27 03:40:46;;;;;;;;;;;16.90;99.90;;;;;;7609093;19;20500;-74
2023/08/27 03:43:18;;;;;;;;;;;16.80;99.90;;;;;;7609794;19;19919;-72
2023/08/27 03:45:51;;;;;;;;;;;16.90;99.90;;;;;;7612490;19;19922;-74
2023/08/27 03:48:23;;;;;;;;;;;16.90;99.90;;;;;;7608797;19;19928;-73
2023/08/27 03:50:55;;;;;;;;;;;16.90;99.90;;;;;;7609943;19;20268;-73
2023/08/27 03:53:28;;;;;;;;;;;16.80;99.90;;;;;;7608697;19;19923;-74
2023/08/27 03:56:02;;;;;;;;;;;16.70;99.90;;;;;;7603233;19;19930;-72
2023/08/27 03:58:35;;;;;;;;;;;16.70;99.90;;;;;;7607860;19;19918;-72
2023/08/27 04:01:07;;;;;;;;;;;16.80;99.90;;;;;;7610479;19;19942;-72
2023/08/27 04:03:40;;;;;;;;;;;16.80;99.90;;;;;;7611452;19;19926;-73
2023/08/27 04:06:12;;;;;;;;;;;16.80;99.90;;;;;;7608532;19;19945;-74
2023/08/27 04:08:44;;;;;;;;;;;16.90;99.90;;;;;;7610218;19;19937;-71
2023/08/27 04:11:16;;;;;;;;;;;16.90;99.90;;;;;;7609080;19;20552;-73
2023/08/27 04:13:50;;;;;;;;;;;16.80;99.90;;;;;;7613822;19;19934;-72
2023/08/27 04:16:22;;;;;;;;;;;16.70;99.90;;;;;;7607238;19;19937;-73
2023/08/27 04:18:55;;;;;;;;;;;16.70;99.90;;;;;;7610377;19;19922;-73
2023/08/27 04:21:28;;;;;;;;;;;16.70;99.90;;;;;;7605333;19;19922;-74
2023/08/27 04:24:00;;;;;;;;;;;16.80;99.90;;;;;;7608197;19;19953;-73
2023/08/27 04:26:32;;;;;;;;;;;16.80;99.90;;;;;;7606171;19;19953;-74
2023/08/27 04:29:04;;;;;;;;;;;16.70;99.90;;;;;;7610901;19;20056;-74
2023/08/27 04:31:37;;;;;;;;;;;16.70;99.90;;;;;;7608363;19;20571;-73
2023/08/27 04:34:09;;;;;;;;;;;16.70;99.90;;;;;;7608572;19;19968;-76
2023/08/27 04:36:41;;;;;;;;;;;16.80;99.90;;;;;;7608270;19;19990;-73
2023/08/27 04:39:13;;;;;;;;;;;16.80;99.90;;;;;;7608802;19;19919;-74
2023/08/27 04:41:45;;;;;;;;;;;16.70;99.90;;;;;;7608608;19;19925;-72
2023/08/27 04:44:18;;;;;;;;;;;16.60;99.90;;;;;;7608500;19;19922;-74
2023/08/27 04:46:51;;;;;;;;;;;16.60;99.90;;;;;;7609030;19;21004;-73
2023/08/27 04:49:23;;;;;;;;;;;16.70;99.90;;;;;;7605884;19;19911;-74
2023/08/27 04:51:55;;;;;;;;;;;16.80;99.90;;;;;;7607132;19;20536;-74
2023/08/27 04:54:27;;;;;;;;;;;16.80;99.90;;;;;;7606441;19;19919;-75
2023/08/27 04:57:00;;;;;;;;;;;16.80;99.90;;;;;;7606776;19;20790;-74
2023/08/27 04:59:32;;;;;;;;;;;16.90;99.90;;;;;;7607917;19;20337;-74
2023/08/27 05:02:04;;;;;;;;;;;16.90;99.90;;;;;;7610551;19;19929;-74
2023/08/27 05:04:36;;;;;;;;;;;16.90;99.90;;;;;;7608069;19;19918;-74
2023/08/27 05:07:09;;;;;;;;;;;16.90;99.90;;;;;;7604937;19;19938;-74
2023/08/27 05:09:43;;;;;;;;;;;16.90;99.90;;;;;;7617954;19;19951;-74
2023/08/27 05:12:15;;;;;;;;;;;16.70;99.90;;;;;;7611441;19;19922;-74
2023/08/27 05:14:47;;;;;;;;;;;16.70;99.90;;;;;;7614967;19;19931;-74
2023/08/27 05:17:20;;;;;;;;;;;16.70;99.90;;;;;;7611751;19;19942;-73
2023/08/27 05:19:53;;;;;;;;;;;16.80;99.90;;;;;;7616659;19;19925;-74
2023/08/27 05:22:25;;;;;;;;;;;16.90;99.90;;;;;;7617326;19;19921;-73
2023/08/27 05:24:57;;;;;;;;;;;16.90;99.90;;;;;;7616671;19;19952;-73
2023/08/27 05:27:29;;;;;;;;;;;16.90;99.90;;;;;;7612857;19;19947;-74
2023/08/27 05:30:02;;;;;;;;;;;16.80;99.90;;;;;;7617205;19;19923;-76
2023/08/27 05:32:35;;;;;;;;;;;16.80;99.90;;;;;;7616586;19;19929;-73
2023/08/27 05:35:07;;;;;;;;;;;16.70;99.90;;;;;;7614855;19;19939;-77
2023/08/27 05:37:39;;;;;;;;;;;16.80;99.90;;;;;;7615929;19;20824;-76
2023/08/27 05:40:11;;;;;;;;;;;16.80;99.90;;;;;;7617856;19;19986;-75
2023/08/27 05:42:44;;;;;;;;;;;16.80;99.90;;;;;;7613540;19;19923;-75
2023/08/27 05:45:17;;;;;;;;;;;16.90;99.90;;;;;;7612016;19;19956;-75
2023/08/27 05:47:50;;;;;;;;;;;16.80;99.90;;;;;;7614582;19;20296;-75
2023/08/27 05:50:23;;;;;;;;;;;16.90;99.90;;;;;;7612919;19;19930;-75
2023/08/27 05:52:55;;;;;;;;;;;16.90;99.90;;;;;;7617142;19;19978;-75
2023/08/27 05:55:27;;;;;;;;;;;16.90;99.90;;;;;;7612192;19;20380;-73
2023/08/27 05:58:00;;;;;;;;;;;16.80;99.90;;;;;;7613647;19;20220;-75
2023/08/27 06:00:33;;;;;;;;;;;16.80;99.90;;;;;;7613277;19;19926;-75
2023/08/27 06:03:05;;;;;;;;;;;16.80;99.90;;;;;;7614976;19;19961;-75
2023/08/27 06:05:39;;;;;;;;;;;16.80;99.90;;;;;;7613039;19;19929;-75
2023/08/27 06:08:11;;;;;;;;;;;16.80;99.90;;;;;;7615207;19;19994;-75
2023/08/27 06:10:44;;;;;;;;;;;16.80;99.90;;;;;;7612469;19;19922;-74
2023/08/27 06:13:18;;;;;;;;;;;16.80;99.90;;;;;;7613886;19;20456;-74
2023/08/27 06:15:50;;;;;;;;;;;16.80;99.90;;;;;;7613948;19;19923;-74
2023/08/27 06:18:22;;;;;;;;;;;16.70;99.90;;;;;;7610972;19;20002;-75
2023/08/27 06:20:55;;;;;;;;;;;16.70;99.90;;;;;;7613355;19;20532;-73
2023/08/27 06:23:27;;;;;;;;;;;16.70;99.90;;;;;;7614151;19;19938;-74
2023/08/27 06:26:03;;;;;;;;;;;16.70;99.90;;;;;;7609093;19;19934;-75
2023/08/27 06:28:35;;;;;;;;;;;16.70;99.90;;;;;;7612424;19;19918;-75
2023/08/27 06:31:08;;;;;;;;;;;16.80;99.90;;;;;;7615476;19;19932;-75
2023/08/27 06:33:40;;;;;;;;;;;16.70;99.90;;;;;;7613255;19;22517;-75
2023/08/27 06:36:12;;;;;;;;;;;16.70;99.90;;;;;;7610881;19;20261;-74
2023/08/27 06:38:45;;;;;;;;;;;16.70;99.90;;;;;;7610341;19;19929;-75
2023/08/27 06:41:17;;;;;;;;;;;16.70;99.90;;;;;;7610384;19;19942;-75
2023/08/27 06:43:53;;;;;;;;;;;16.60;99.90;;;;;;7618944;19;19959;-76
2023/08/27 06:46:26;;;;;;;;;;;16.70;99.90;;;;;;7611812;19;20269;-75
2023/08/27 06:48:58;;;;;;;;;;;16.80;99.90;;;;;;7611427;19;19986;-75
2023/08/27 06:51:31;;;;;;;;;;;16.80;99.90;;;;;;7614133;19;19929;-75
2023/08/27 06:54:04;;;;;;;;;;;16.80;99.90;;;;;;7615639;19;19929;-75
2023/08/27 06:56:37;;;;;;;;;;;16.80;99.90;;;;;;7607716;19;19952;-74
2023/08/27 06:59:12;;;;;;;;;;;16.90;99.90;;;;;;7616553;19;20396;-75
2023/08/27 07:01:45;;;;;;;;;;;16.80;99.90;;;;;;7615170;19;19938;-75
2023/08/27 07:04:17;;;;;;;;;;;16.90;99.90;;;;;;7612909;19;20006;-75
2023/08/27 07:06:49;;;;;;;;;;;16.80;99.90;;;;;;7609714;19;19922;-74
2023/08/27 07:09:25;;;;;;;;;;;16.90;99.90;;;;;;7617181;19;19933;-76
2023/08/27 07:11:58;;;;;;;;;;;16.90;99.90;;;;;;7614797;19;20459;-75
2023/08/27 07:14:30;;;;;;;;;;;16.80;99.90;;;;;;7612027;19;20274;-75
2023/08/27 07:17:02;;;;;;;;;;;16.80;99.90;;;;;;7612403;19;19926;-75
2023/08/27 07:19:34;;;;;;;;;;;16.90;99.90;;;;;;7611782;19;19929;-75
2023/08/27 07:22:07;;;;;;;;;;;16.90;99.90;;;;;;7614754;19;20013;-76
2023/08/27 07:24:40;;;;;;;;;;;16.90;99.90;;;;;;7611974;19;19933;-76
2023/08/27 07:27:13;;;;;;;;;;;17.00;99.90;;;;;;7612320;19;20880;-75
2023/08/27 07:29:45;;;;;;;;;;;17.00;99.90;;;;;;7611066;19;19918;-75
2023/08/27 07:32:17;;;;;;;;;;;17.00;99.90;;;;;;7613766;19;19922;-75
2023/08/27 07:34:49;;;;;;;;;;;17.10;99.90;;;;;;7609051;19;19922;-75
2023/08/27 07:37:26;;;;;;;;;;;17.00;99.90;;;;;;7598359;19;19930;-73
2023/08/27 07:39:58;;;;;;;;;;;17.00;99.90;;;;;;7610739;19;19954;-75
2023/08/27 07:42:31;;;;;;;;;;;16.90;99.90;;;;;;7605956;19;19914;-76
2023/08/27 07:45:03;;;;;;;;;;;16.90;99.90;;;;;;7609339;19;19915;-75
2023/08/27 07:47:36;;;;;;;;;;;16.90;99.90;;;;;;7606087;19;20265;-74
2023/08/27 07:50:08;;;;;;;;;;;17.00;99.90;;;;;;7611787;19;19915;-76
2023/08/27 07:52:40;;;;;;;;;;;17.00;99.90;;;;;;7613842;19;20019;-74
2023/08/27 07:55:12;;;;;;;;;;;17.00;99.90;;;;;;7611319;19;19974;-75
2023/08/27 07:57:45;;;;;;;;;;;17.10;99.90;;;;;;7608734;19;19926;-75
2023/08/27 08:00:18;;;;;;;;;;;17.00;99.90;;;;;;7611916;19;19950;-75
2023/08/27 08:02:51;;;;;;;;;;;17.10;99.90;;;;;;7608958;19;19927;-75
2023/08/27 08:05:24;;;;;;;;;;;17.10;99.90;;;;;;7613424;19;19946;-76
2023/08/27 08:07:57;;;;;;;;;;;17.00;99.90;;;;;;7612151;19;19990;-76
2023/08/27 08:10:30;;;;;;;;;;;17.10;99.90;;;;;;7610859;19;19922;-75
2023/08/27 08:13:02;;;;;;;;;;;17.00;99.90;;;;;;7612250;19;19939;-76
2023/08/27 08:15:34;;;;;;;;;;;17.20;99.90;;;;;;7611648;19;19914;-76
2023/08/27 08:18:06;;;;;;;;;;;17.20;99.90;;;;;;7611614;19;20016;-75
2023/08/27 08:20:39;;;;;;;;;;;17.20;99.90;;;;;;7614256;19;19982;-75
2023/08/27 08:23:11;;;;;;;;;;;17.10;99.90;;;;;;7613836;19;20444;-74
2023/08/27 08:25:44;;;;;;;;;;;17.20;99.90;;;;;;7612175;19;20005;-76
2023/08/27 08:28:16;;;;;;;;;;;17.10;99.90;;;;;;7611463;19;19938;-75
2023/08/27 08:30:49;;;;;;;;;;;17.00;99.90;;;;;;7609064;19;19959;-75
2023/08/27 08:33:21;;;;;;;;;;;17.00;99.90;;;;;;7613881;19;19923;-75
2023/08/27 08:35:54;;;;;;;;;;;17.20;99.90;;;;;;7609802;19;20515;-75
2023/08/27 08:38:26;;;;;;;;;;;17.10;99.90;;;;;;7613309;19;19938;-74
2023/08/27 08:41:00;;;;;;;;;;;17.10;99.90;;;;;;7609766;19;19935;-75
2023/08/27 08:43:37;;;;;;;;;;;17.20;99.90;;;;;;7610284;19;19929;-76
2023/08/27 08:46:10;;;;;;;;;;;17.20;99.90;;;;;;7611777;19;19918;-75
2023/08/27 08:48:43;;;;;;;;;;;17.30;99.90;;;;;;7609115;19;21307;-75
2023/08/27 08:51:21;;;;;;;;;;;17.40;99.90;;;;;;7611175;19;19918;-75
2023/08/27 08:53:57;;;;;;;;;;;17.40;99.90;;;;;;7608160;19;20091;-75
2023/08/27 08:56:37;;;;;;;;;;;17.30;99.90;;;;;;7609580;19;20345;-75
2023/08/27 08:59:10;;;;;;;;;;;17.20;99.90;;;;;;7612319;19;19944;-76
2023/08/27 09:01:42;;;;;;;;;;;17.20;99.90;;;;;;7608861;19;19923;-75
2023/08/27 09:04:14;;;;;;;;;;;17.30;99.90;;;;;;7604205;19;21199;-75
2023/08/27 09:06:47;;;;;;;;;;;17.20;99.90;;;;;;7603265;19;20316;-74
2023/08/27 09:09:20;;;;;;;;;;;17.20;99.90;;;;;;7612693;19;19956;-75
2023/08/27 09:11:54;;;;;;;;;;;17.30;99.90;;;;;;7603638;19;21048;-76
2023/08/27 09:14:29;;;;;;;;;;;17.40;99.90;;;;;;7613355;19;19929;-74
2023/08/27 09:17:01;;;;;;;;;;;17.20;99.90;;;;;;7606432;19;19951;-75
2023/08/27 09:19:34;;;;;;;;;;;17.20;99.90;;;;;;7610145;19;19929;-75
2023/08/27 09:22:06;;;;;;;;;;;17.30;99.90;;;;;;7609434;19;21605;-75
2023/08/27 09:24:38;;;;;;;;;;;17.20;99.90;;;;;;7609835;19;19927;-75
2023/08/27 09:27:11;;;;;;;;;;;17.30;99.90;;;;;;7607940;19;19930;-75
2023/08/27 09:29:45;;;;;;;;;;;17.20;99.90;;;;;;7608556;19;20357;-75
2023/08/27 09:32:22;;;;;;;;;;;17.20;99.90;;;;;;7611085;19;20562;-74
2023/08/27 09:34:58;;;;;;;;;;;17.20;99.90;;;;;;7606605;19;19923;-75
2023/08/27 09:37:40;;;;;;;;;;;17.20;99.90;;;;;;7610979;19;20392;-74
2023/08/27 09:40:19;;;;;;;;;;;17.20;99.90;;;;;;7610260;19;19918;-74
2023/08/27 09:43:04;;;;;;;;;;;17.10;99.90;;;;;;7611142;19;21134;-74
2023/08/27 09:45:36;;;;;;;;;;;17.10;99.90;;;;;;7607673;19;19926;-75
2023/08/27 09:48:10;;;;;;;;;;;17.10;99.90;;;;;;7606669;19;19992;-75
2023/08/27 09:50:43;;;;;;;;;;;17.20;99.90;;;;;;7610724;19;20010;-74
2023/08/27 09:53:16;;;;;;;;;;;17.20;99.90;;;;;;7609136;19;20436;-75
2023/08/27 09:55:50;;;;;;;;;;;17.20;99.90;;;;;;7614161;19;19942;-73
2023/08/27 09:58:28;;;;;;;;;;;17.10;99.90;;;;;;7617480;19;19993;-75
2023/08/27 10:01:01;;;;;;;;;;;17.10;99.90;;;;;;7614360;19;19922;-74
2023/08/27 10:03:33;;;;;;;;;;;17.10;99.90;;;;;;7618315;19;19956;-72
2023/08/27 10:06:05;;;;;;;;;;;17.00;99.90;;;;;;7613456;19;19923;-75
2023/08/27 10:08:50;;;;;;;;;;;16.90;99.90;;;;;;7616962;19;19974;-75
2023/08/27 10:11:23;;;;;;;;;;;16.80;99.90;;;;;;7616787;19;19914;-74
2023/08/27 10:13:57;;;;;;;;;;;16.80;99.90;;;;;;7619811;19;20962;-75
2023/08/27 10:16:30;;;;;;;;;;;16.70;99.90;;;;;;7616691;19;19926;-75
2023/08/27 10:19:05;;;;;;;;;;;16.70;99.90;;;;;;7615129;19;19925;-74
2023/08/27 10:21:38;;;;;;;;;;;16.80;99.90;;;;;;7613307;19;20420;-75
2023/08/27 10:24:11;;;;;;;;;;;16.70;99.90;;;;;;7617612;19;19978;-75
2023/08/27 10:26:43;;;;;;;;;;;16.80;99.90;;;;;;7616275;19;19947;-75
2023/08/27 10:29:16;;;;;;;;;;;16.70;99.90;;;;;;7616058;19;19922;-76
2023/08/27 10:31:48;;;;;;;;;;;16.60;99.90;;;;;;7618557;19;19922;-74
2023/08/27 10:34:23;;;;;;;;;;;16.60;99.90;;;;;;7618724;19;19918;-75
2023/08/27 10:36:58;;;;;;;;;;;16.50;99.90;;;;;;7613703;19;19925;-75
2023/08/27 10:39:31;;;;;;;;;;;16.60;99.90;;;;;;7615947;19;19922;-75
2023/08/27 10:42:04;;;;;;;;;;;16.60;99.90;;;;;;7613731;19;20357;-75
2023/08/27 10:44:37;;;;;;;;;;;16.50;99.90;;;;;;7616830;19;19922;-74
2023/08/27 10:47:14;;;;;;;;;;;16.60;99.90;;;;;;7613233;19;19922;-73
2023/08/27 10:49:51;;;;;;;;;;;16.50;99.90;;;;;;7614944;19;19919;-75
2023/08/27 10:52:25;;;;;;;;;;;16.50;99.90;;;;;;7616856;19;19923;-74
2023/08/27 10:54:59;;;;;;;;;;;16.50;99.90;;;;;;7614855;19;19923;-75
2023/08/27 10:57:35;;;;;;;;;;;16.50;99.90;;;;;;7614494;19;19919;-75
2023/08/27 11:00:12;;;;;;;;;;;16.40;99.90;;;;;;7614733;19;19919;-75
2023/08/27 11:02:55;;;;;;;;;;;16.40;99.90;;;;;;7614800;19;20524;-76
2023/08/27 11:05:29;;;;;;;;;;;16.40;99.90;;;;;;7615765;19;19925;-75
2023/08/27 11:08:12;;;;;;;;;;;16.30;99.90;;;;;;7606322;19;20814;-75
2023/08/27 11:10:44;;;;;;;;;;;16.40;99.90;;;;;;7605080;19;19931;-74
2023/08/27 11:13:46;;;;;;;;;;;16.40;99.90;;;;;;7609848;19;19918;-75
2023/08/27 11:16:18;;;;;;;;;;;16.30;99.90;;;;;;7606248;19;22122;-75
2023/08/27 11:18:50;;;;;;;;;;;16.40;99.90;;;;;;7607981;19;19914;-75
2023/08/27 11:21:25;;;;;;;;;;;16.40;99.90;;;;;;7610520;19;19938;-74
2023/08/27 11:24:17;;;;;;;;;;;16.30;99.90;;;;;;7608043;19;20268;-75
2023/08/27 11:26:49;;;;;;;;;;;16.30;99.90;;;;;;7610416;19;19922;-75
2023/08/27 11:29:22;;;;;;;;;;;16.20;99.90;;;;;;7619304;19;19932;-75
2023/08/27 11:31:56;;;;;;;;;;;16.30;99.90;;;;;;7614405;19;20302;-75
2023/08/27 11:34:36;;;;;;;;;;;16.30;99.90;;;;;;7612976;19;19922;-74
2023/08/27 11:37:08;;;;;;;;;;;16.40;99.90;;;;;;7611960;19;20533;-75
2023/08/27 11:39:41;;;;;;;;;;;16.30;99.90;;;;;;7616315;19;19915;-75
2023/08/27 11:42:16;;;;;;;;;;;16.20;99.90;;;;;;7616226;19;19935;-75
2023/08/27 11:44:52;;;;;;;;;;;16.20;99.90;;;;;;7611416;19;20393;-75
2023/08/27 11:47:24;;;;;;;;;;;16.10;99.90;;;;;;7613189;19;19925;-73
2023/08/27 11:49:58;;;;;;;;;;;16.10;99.90;;;;;;7612711;19;19926;-74
2023/08/27 11:52:34;;;;;;;;;;;16.10;99.90;;;;;;7615535;19;20937;-74
2023/08/27 11:55:07;;;;;;;;;;;16.10;99.90;;;;;;7615145;19;19925;-74
2023/08/27 11:57:40;;;;;;;;;;;16.10;99.90;;;;;;7608753;19;19918;-75
2023/08/27 12:00:13;;;;;;;;;;;16.10;99.90;;;;;;7617118;19;19952;-75
2023/08/27 12:02:46;;;;;;;;;;;16.10;99.90;;;;;;7618357;19;19971;-75
2023/08/27 12:05:18;;;;;;;;;;;16.20;99.90;;;;;;7619796;19;20036;-74
2023/08/27 12:07:51;;;;;;;;;;;16.20;99.90;;;;;;7616192;19;19923;-74
2023/08/27 12:10:23;;;;;;;;;;;16.20;99.90;;;;;;7621070;19;19934;-75
2023/08/27 12:12:58;;;;;;;;;;;16.20;99.90;;;;;;7618090;19;21577;-75
2023/08/27 12:15:31;;;;;;;;;;;15.90;99.90;;;;;;7620873;19;20472;-75
2023/08/27 12:18:07;;;;;;;;;;;15.90;99.90;;;;;;7615881;19;19926;-74
2023/08/27 12:20:39;;;;;;;;;;;15.90;99.90;;;;;;7625960;19;19925;-75
2023/08/27 12:23:12;;;;;;;;;;;15.90;99.90;;;;;;7624935;19;19950;-74
2023/08/27 12:25:48;;;;;;;;;;;15.90;99.90;;;;;;7622470;19;19925;-74
2023/08/27 12:28:21;;;;;;;;;;;16.00;99.90;;;;;;7623508;19;19927;-74
2023/08/27 12:30:54;;;;;;;;;;;16.00;99.90;;;;;;7620693;19;19923;-76
2023/08/27 12:33:40;;;;;;;;;;;16.00;99.90;;;;;;7621683;19;19911;-75
2023/08/27 12:36:12;;;;;;;;;;;15.90;99.90;;;;;;7619841;19;19918;-73
2023/08/27 12:38:44;;;;;;;;;;;16.00;99.90;;;;;;7619962;19;19966;-74
2023/08/27 12:41:17;;;;;;;;;;;16.00;99.90;;;;;;7622414;19;19922;-75
2023/08/27 12:43:51;;;;;;;;;;;16.10;99.90;;;;;;7620933;19;19922;-74
2023/08/27 12:46:23;;;;;;;;;;;16.10;99.90;;;;;;7620589;19;19922;-75
2023/08/27 12:48:55;;;;;;;;;;;16.20;99.90;;;;;;7622735;19;19919;-75
2023/08/27 12:51:28;;;;;;;;;;;16.10;99.90;;;;;;7625085;19;19922;-75
2023/08/27 12:54:00;;;;;;;;;;;16.20;99.90;;;;;;7625249;19;19921;-74
2023/08/27 12:56:33;;;;;;;;;;;16.20;99.90;;;;;;7627917;19;19979;-74
2023/08/27 12:59:06;;;;;;;;;;;16.20;99.90;;;;;;7624364;19;20608;-74
2023/08/27 13:01:41;;;;;;;;;;;16.30;99.90;;;;;;7620318;19;19923;-75
2023/08/27 13:04:13;;;;;;;;;;;16.20;99.90;;;;;;7618583;19;19946;-75
2023/08/27 13:06:45;;;;;;;;;;;16.30;99.90;;;;;;7615257;19;19923;-74
2023/08/27 13:09:18;;;;;;;;;;;16.50;99.90;;;;;;7618524;19;19929;-75
2023/08/27 13:11:51;;;;;;;;;;;16.50;99.90;;;;;;7615974;19;19918;-74
2023/08/27 13:14:23;;;;;;;;;;;16.50;99.90;;;;;;7621180;19;19946;-75
2023/08/27 13:16:55;;;;;;;;;;;16.40;99.90;;;;;;7611469;19;19918;-75
2023/08/27 13:19:28;;;;;;;;;;;16.50;99.90;;;;;;7615656;19;19986;-75
2023/08/27 13:22:00;;;;;;;;;;;16.50;99.90;;;;;;7617356;19;20252;-75
2023/08/27 13:24:32;;;;;;;;;;;16.50;99.90;;;;;;7617431;19;20288;-75
2023/08/27 13:27:04;;;;;;;;;;;16.60;99.90;;;;;;7612342;19;19922;-75
2023/08/27 13:29:37;;;;;;;;;;;16.60;99.90;;;;;;7623899;19;20676;-75
2023/08/27 13:32:10;;;;;;;;;;;16.70;99.90;;;;;;7620315;19;21127;-75
2023/08/27 13:34:42;;;;;;;;;;;16.60;99.90;;;;;;7625517;19;19926;-75
2023/08/27 13:37:15;;;;;;;;;;;16.70;99.90;;;;;;7619277;19;20808;-75
2023/08/27 13:39:47;;;;;;;;;;;16.80;99.90;;;;;;7625661;19;19927;-75
2023/08/27 13:42:19;;;;;;;;;;;16.80;99.90;;;;;;7620973;19;20283;-74
2023/08/27 13:44:51;;;;;;;;;;;16.90;99.90;;;;;;7620661;19;20253;-73
2023/08/27 13:47:24;;;;;;;;;;;16.90;99.90;;;;;;7616652;19;19990;-73
2023/08/27 13:49:56;;;;;;;;;;;16.90;99.90;;;;;;7617319;19;19926;-73
2023/08/27 13:52:28;;;;;;;;;;;17.00;99.90;;;;;;7619437;19;20294;-73
2023/08/27 13:55:01;;;;;;;;;;;17.10;99.90;;;;;;7624697;19;19919;-73
2023/08/27 13:57:33;;;;;;;;;;;17.30;99.90;;;;;;7618670;19;19918;-74
2023/08/27 14:00:05;;;;;;;;;;;17.30;99.90;;;;;;7615774;19;19933;-74
2023/08/27 14:02:38;;;;;;;;;;;17.40;99.90;;;;;;7616286;19;19922;-73
2023/08/27 14:05:10;;;;;;;;;;;17.50;99.90;;;;;;7616581;19;20435;-74
2023/08/27 14:07:43;;;;;;;;;;;17.60;99.90;;;;;;7615354;19;19919;-73
2023/08/27 14:10:15;;;;;;;;;;;17.50;99.90;;;;;;7614185;19;20873;-74
2023/08/27 14:12:49;;;;;;;;;;;17.50;99.90;;;;;;7617383;19;21150;-73
2023/08/27 14:15:22;;;;;;;;;;;17.70;99.90;;;;;;7617272;19;19964;-74
2023/08/27 14:17:54;;;;;;;;;;;17.60;99.90;;;;;;7612884;19;20250;-74
2023/08/27 14:20:28;;;;;;;;;;;17.60;99.90;;;;;;7618689;19;20021;-74
2023/08/27 14:23:01;;;;;;;;;;;17.80;99.90;;;;;;7615127;19;20357;-74
2023/08/27 14:25:34;;;;;;;;;;;18.00;99.90;;;;;;7610245;19;19963;-73
2023/08/27 14:28:06;;;;;;;;;;;18.00;99.90;;;;;;7608627;19;19918;-74
2023/08/27 14:30:38;;;;;;;;;;;17.80;99.90;;;;;;7618950;19;19915;-74
2023/08/27 14:33:10;;;;;;;;;;;17.80;99.90;;;;;;7613259;19;19944;-74
2023/08/27 14:35:43;;;;;;;;;;;17.80;99.90;;;;;;7618103;19;20779;-74
2023/08/27 14:38:15;;;;;;;;;;;17.70;99.90;;;;;;7613120;19;19986;-73
2023/08/27 14:40:47;;;;;;;;;;;17.60;99.90;;;;;;7615512;19;19923;-74
2023/08/27 14:43:19;;;;;;;;;;;17.40;99.90;;;;;;7620017;19;19926;-74
2023/08/27 14:45:52;;;;;;;;;;;17.30;99.90;;;;;;7615999;19;19982;-74
2023/08/27 14:48:25;;;;;;;;;;;17.30;99.90;;;;;;7618557;19;19919;-74
2023/08/27 14:50:57;;;;;;;;;;;17.30;99.90;;;;;;7616215;19;20365;-74